createdAt,value
2019-05-25T00:00:05.313Z,15.55
2019-05-25T00:02:36.693Z,15.45
2019-05-25T00:05:07.601Z,15.40
2019-05-25T00:07:37.077Z,15.36
2019-05-25T00:10:09.535Z,15.33
2019-05-25T00:12:39.142Z,15.33
2019-05-25T00:15:08.922Z,15.32
2019-05-25T00:17:41.171Z,15.28
2019-05-25T00:20:11.995Z,15.30
2019-05-25T00:22:42.614Z,15.38
2019-05-25T00:25:16.046Z,15.48
2019-05-25T00:27:46.862Z,15.59
2019-05-25T00:30:16.119Z,15.69
2019-05-25T00:32:47.153Z,15.71
2019-05-25T00:35:19.127Z,15.76
2019-05-25T00:37:51.217Z,15.82
2019-05-25T00:40:22.801Z,15.82
2019-05-25T00:42:55.477Z,15.83
2019-05-25T00:45:27.209Z,15.81
2019-05-25T00:48:00.359Z,15.80
2019-05-25T00:50:31.165Z,15.80
2019-05-25T00:53:00.956Z,15.78
2019-05-25T00:55:31.369Z,15.77
2019-05-25T00:58:04.586Z,15.80
2019-05-25T01:00:37.597Z,15.81
2019-05-25T01:03:07.981Z,15.84
2019-05-25T01:05:38.523Z,15.89
2019-05-25T01:08:07.885Z,15.92
2019-05-25T01:10:38.279Z,15.94
2019-05-25T01:13:07.702Z,15.95
2019-05-25T01:15:38.268Z,15.92
2019-05-25T01:18:07.758Z,15.87
2019-05-25T01:20:38.223Z,15.88
2019-05-25T01:23:08.446Z,15.84
2019-05-25T01:25:40.919Z,15.86
2019-05-25T01:28:11.468Z,15.86
2019-05-25T01:30:41.836Z,15.86
2019-05-25T01:33:11.696Z,15.81
2019-05-25T01:35:42.330Z,15.83
2019-05-25T01:38:15.625Z,15.80
2019-05-25T01:40:45.061Z,15.77
2019-05-25T01:43:14.522Z,15.75
2019-05-25T01:45:43.994Z,15.75
2019-05-25T01:48:12.485Z,15.72
2019-05-25T01:50:41.828Z,15.67
2019-05-25T01:53:12.460Z,15.66
2019-05-25T01:55:43.382Z,15.62
2019-05-25T01:58:13.793Z,15.55
2019-05-25T02:00:45.462Z,15.50
2019-05-25T02:03:15.871Z,15.48
2019-05-25T02:05:45.429Z,15.43
2019-05-25T02:08:17.365Z,15.37
2019-05-25T02:10:48.525Z,15.31
2019-05-25T02:13:18.147Z,15.23
2019-05-25T02:15:47.044Z,15.12
2019-05-25T02:18:17.469Z,14.97
2019-05-25T02:20:49.288Z,14.88
2019-05-25T02:23:21.201Z,14.83
2019-05-25T02:25:53.576Z,14.77
2019-05-25T02:28:23.982Z,14.69
2019-05-25T02:30:55.068Z,14.65
2019-05-25T02:33:24.595Z,14.60
2019-05-25T02:35:54.988Z,14.53
2019-05-25T02:38:23.790Z,14.46
2019-05-25T02:40:55.871Z,14.41
2019-05-25T02:43:26.310Z,14.34
2019-05-25T02:45:56.808Z,14.31
2019-05-25T02:48:27.303Z,14.26
2019-05-25T02:50:57.676Z,14.22
2019-05-25T02:53:27.075Z,14.14
2019-05-25T02:55:56.364Z,14.10
2019-05-25T02:58:27.287Z,14.08
2019-05-25T03:00:58.111Z,14.06
2019-05-25T03:03:28.827Z,14.07
2019-05-25T03:05:59.597Z,14.00
2019-05-25T03:08:31.256Z,13.96
2019-05-25T03:11:02.116Z,13.94
2019-05-25T03:13:33.165Z,13.89
2019-05-25T03:16:03.163Z,13.92
2019-05-25T03:18:33.554Z,13.92
2019-05-25T03:21:02.960Z,13.90
2019-05-25T03:23:33.337Z,13.94
2019-05-25T03:26:03.662Z,13.96
2019-05-25T03:28:35.182Z,13.93
2019-05-25T03:31:06.644Z,13.95
2019-05-25T03:33:39.965Z,13.96
2019-05-25T03:36:10.489Z,14.04
2019-05-25T03:38:40.814Z,14.14
2019-05-25T03:41:10.234Z,14.24
2019-05-25T03:43:39.011Z,14.30
2019-05-25T03:46:08.338Z,14.38
2019-05-25T03:48:37.939Z,14.48
2019-05-25T03:51:08.211Z,14.70
2019-05-25T03:53:38.549Z,15.07
2019-05-25T03:56:07.903Z,15.93
2019-05-25T03:58:37.235Z,16.87
2019-05-25T04:01:08.659Z,17.46
2019-05-25T04:03:40.335Z,17.71
2019-05-25T04:06:09.939Z,17.84
2019-05-25T04:08:39.389Z,17.69
2019-05-25T04:11:09.775Z,17.28
2019-05-25T04:13:40.215Z,17.03
2019-05-25T04:16:09.595Z,17.24
2019-05-25T04:18:38.944Z,17.68
2019-05-25T04:21:09.407Z,18.23
2019-05-25T04:23:39.932Z,18.62
2019-05-25T04:26:21.869Z,19.02
2019-05-25T04:31:12.081Z,22.81
2019-05-25T04:33:42.485Z,24.32
2019-05-25T04:36:13.832Z,24.32
2019-05-25T04:38:48.105Z,24.53
2019-05-25T04:41:17.601Z,22.51
2019-05-25T04:43:51.645Z,22.52
2019-05-25T04:46:23.568Z,24.60
2019-05-25T04:48:54.826Z,25.67
2019-05-25T04:51:24.278Z,26.16
2019-05-25T04:53:57.114Z,25.59
2019-05-25T04:56:38.865Z,27.99
2019-05-25T04:58:59.749Z,29.73
2019-05-25T05:01:29.709Z,30.72
2019-05-25T05:03:59.265Z,31.45
2019-05-25T05:06:30.900Z,32.69
2019-05-25T05:09:01.323Z,33.81
2019-05-25T05:11:31.695Z,35.52
2019-05-25T05:14:01.093Z,36.41
2019-05-25T05:16:31.496Z,37.54
2019-05-25T05:19:03.609Z,37.86
2019-05-25T05:21:33.975Z,39.34
2019-05-25T05:24:05.684Z,39.61
2019-05-25T05:26:36.083Z,36.21
2019-05-25T05:29:05.778Z,35.54
2019-05-25T05:31:37.687Z,35.74
2019-05-25T05:34:08.526Z,35.44
2019-05-25T05:36:40.485Z,35.64
2019-05-25T05:39:11.842Z,36.53
2019-05-25T05:41:43.383Z,38.99
2019-05-25T05:44:15.888Z,36.75
2019-05-25T05:46:50.933Z,38.11
2019-05-25T05:49:21.613Z,36.77
2019-05-25T05:51:52.953Z,35.64
2019-05-25T05:54:23.350Z,35.63
2019-05-25T05:56:52.962Z,37.70
2019-05-25T05:59:22.073Z,39.06
2019-05-25T06:01:53.625Z,40.23
2019-05-25T06:04:22.445Z,40.54
2019-05-25T06:06:52.650Z,40.93
2019-05-25T06:09:23.906Z,40.62
2019-05-25T06:11:54.516Z,41.99
2019-05-25T06:14:25.246Z,43.81
2019-05-25T06:16:56.165Z,42.22
2019-05-25T06:19:26.988Z,36.89
2019-05-25T06:21:58.962Z,32.66
2019-05-25T06:24:29.582Z,29.97
2019-05-25T06:26:59.813Z,29.48
2019-05-25T06:29:30.293Z,30.88
2019-05-25T06:32:00.798Z,33.75
2019-05-25T06:34:30.295Z,38.15
2019-05-25T06:36:59.885Z,37.17
2019-05-25T06:39:29.398Z,34.24
2019-05-25T06:42:01.682Z,37.27
2019-05-25T06:44:34.183Z,32.75
2019-05-25T06:47:03.994Z,38.65
2019-05-25T06:49:34.090Z,42.46
2019-05-25T06:52:03.660Z,41.10
2019-05-25T06:54:35.590Z,47.10
2019-05-25T06:57:06.631Z,45.15
2019-05-25T06:59:37.238Z,40.17
2019-05-25T07:02:08.059Z,38.45
2019-05-25T07:04:38.317Z,38.07
2019-05-25T07:07:09.292Z,38.06
2019-05-25T07:09:42.992Z,37.10
2019-05-25T07:12:12.435Z,36.87
2019-05-25T07:14:42.813Z,35.89
2019-05-25T07:17:12.173Z,36.16
2019-05-25T07:19:43.205Z,36.28
2019-05-25T07:22:16.738Z,36.53
2019-05-25T07:24:46.105Z,38.70
2019-05-25T07:27:16.728Z,37.80
2019-05-25T07:29:47.642Z,39.79
2019-05-25T07:32:20.765Z,42.09
2019-05-25T07:34:54.821Z,41.01
2019-05-25T07:37:25.620Z,40.20
2019-05-25T07:39:56.054Z,38.74
2019-05-25T07:42:26.559Z,42.23
2019-05-25T07:44:58.642Z,44.97
2019-05-25T07:47:28.122Z,44.38
2019-05-25T07:49:57.612Z,41.15
2019-05-25T07:52:30.063Z,38.48
2019-05-25T07:55:01.875Z,37.27
2019-05-25T07:57:32.786Z,37.89
2019-05-25T08:00:02.252Z,40.56
2019-05-25T08:02:33.150Z,43.76
2019-05-25T08:05:04.182Z,41.94
2019-05-25T08:07:36.151Z,40.56
2019-05-25T08:10:07.822Z,38.82
2019-05-25T08:12:37.620Z,38.76
2019-05-25T08:15:09.616Z,37.84
2019-05-25T08:17:40.189Z,37.50
2019-05-25T08:20:12.568Z,37.62
2019-05-25T08:22:43.183Z,36.57
2019-05-25T08:25:12.754Z,37.30
2019-05-25T08:27:42.215Z,38.09
2019-05-25T08:30:14.276Z,38.76
2019-05-25T08:32:46.161Z,39.51
2019-05-25T08:35:15.983Z,43.52
2019-05-25T08:37:45.549Z,45.26
2019-05-25T08:40:16.646Z,44.36
2019-05-25T08:42:47.680Z,44.54
2019-05-25T08:45:20.213Z,45.94
2019-05-25T08:47:49.690Z,45.14
2019-05-25T08:50:37.095Z,47.43
2019-05-25T08:52:54.943Z,48.62
2019-05-25T08:55:27.252Z,48.03
2019-05-25T08:57:59.741Z,48.22
2019-05-25T09:00:30.665Z,47.95
2019-05-25T09:03:01.059Z,47.91
2019-05-25T09:05:30.558Z,48.00
2019-05-25T09:08:00.106Z,47.90
2019-05-25T09:10:30.602Z,48.86
2019-05-25T09:13:00.179Z,48.14
2019-05-25T09:15:29.568Z,48.52
2019-05-25T09:18:00.550Z,45.86
2019-05-25T09:20:32.688Z,45.33
2019-05-25T09:23:05.970Z,45.50
2019-05-25T09:25:40.350Z,46.59
2019-05-25T09:28:11.531Z,46.03
2019-05-25T09:30:44.186Z,44.78
2019-05-25T09:33:17.723Z,43.78
2019-05-25T09:35:50.158Z,44.52
2019-05-25T09:38:20.738Z,45.47
2019-05-25T09:40:54.768Z,44.70
2019-05-25T09:43:33.945Z,45.00
2019-05-25T09:46:05.748Z,43.98
2019-05-25T09:48:38.336Z,43.56
2019-05-25T09:51:15.389Z,41.93
2019-05-25T09:53:42.251Z,39.64
2019-05-25T09:56:13.839Z,39.75
2019-05-25T09:58:46.220Z,40.28
2019-05-25T10:01:16.843Z,40.01
2019-05-25T10:03:47.846Z,39.31
2019-05-25T10:06:17.282Z,36.15
2019-05-25T10:08:49.725Z,34.70
2019-05-25T10:11:22.934Z,34.51
2019-05-25T10:13:52.459Z,34.26
2019-05-25T10:16:21.994Z,34.19
2019-05-25T10:18:53.624Z,33.49
2019-05-25T10:21:24.510Z,33.47
2019-05-25T10:23:53.360Z,32.94
2019-05-25T10:26:23.168Z,32.47
2019-05-25T10:28:52.981Z,32.09
2019-05-25T10:31:23.908Z,31.36
2019-05-25T10:33:54.861Z,30.72
2019-05-25T10:36:25.576Z,31.54
2019-05-25T10:38:54.317Z,30.99
2019-05-25T10:41:24.813Z,30.64
2019-05-25T10:43:55.117Z,31.11
2019-05-25T10:46:28.798Z,29.81
2019-05-25T10:49:00.901Z,29.46
2019-05-25T10:51:32.106Z,30.00
2019-05-25T10:54:01.639Z,30.88
2019-05-25T10:56:33.373Z,30.95
2019-05-25T10:59:03.793Z,31.12
2019-05-25T11:01:34.235Z,32.01
2019-05-25T11:04:04.710Z,32.49
2019-05-25T11:06:36.214Z,32.69
2019-05-25T11:09:12.211Z,32.73
2019-05-25T11:11:42.612Z,31.14
2019-05-25T11:14:11.979Z,31.82
2019-05-25T11:16:41.369Z,31.51
2019-05-25T11:19:13.345Z,32.07
2019-05-25T11:21:42.668Z,32.23
2019-05-25T11:24:16.308Z,32.46
2019-05-25T11:26:46.832Z,32.53
2019-05-25T11:29:17.869Z,32.81
2019-05-25T11:31:56.736Z,32.32
2019-05-25T11:34:22.249Z,32.04
2019-05-25T11:36:53.252Z,32.07
2019-05-25T11:39:25.739Z,32.11
2019-05-25T11:41:55.009Z,32.16
2019-05-25T11:44:27.538Z,31.37
2019-05-25T11:46:58.426Z,30.28
2019-05-25T11:49:29.763Z,30.22
2019-05-25T11:52:00.269Z,29.80
2019-05-25T11:54:31.304Z,29.60
2019-05-25T11:57:01.916Z,29.46
2019-05-25T11:59:37.131Z,29.87
2019-05-25T12:02:08.907Z,30.52
2019-05-25T12:04:39.419Z,30.60
2019-05-25T12:07:09.834Z,30.58
2019-05-25T12:09:42.934Z,30.09
2019-05-25T12:12:12.543Z,30.55
2019-05-25T12:14:41.073Z,30.54
2019-05-25T12:17:10.989Z,30.60
2019-05-25T12:19:41.736Z,30.60
2019-05-25T12:22:12.011Z,30.33
2019-05-25T12:24:41.080Z,30.32
2019-05-25T12:27:13.572Z,29.67
2019-05-25T12:29:44.292Z,28.39
2019-05-25T12:32:15.742Z,28.68
2019-05-25T12:34:45.368Z,28.91
2019-05-25T12:37:19.478Z,29.77
2019-05-25T12:39:49.068Z,29.33
2019-05-25T12:42:19.908Z,28.61
2019-05-25T12:44:52.473Z,29.20
2019-05-25T12:47:24.570Z,29.55
2019-05-25T12:49:54.956Z,29.75
2019-05-25T12:52:25.252Z,30.27
2019-05-25T12:54:55.775Z,30.35
2019-05-25T12:57:25.582Z,30.28
2019-05-25T12:59:56.066Z,30.11
2019-05-25T13:02:29.696Z,30.50
2019-05-25T13:05:00.318Z,30.51
2019-05-25T13:07:30.718Z,30.34
2019-05-25T13:10:01.167Z,29.62
2019-05-25T13:12:31.954Z,28.90
2019-05-25T13:15:02.935Z,27.95
2019-05-25T13:17:33.822Z,27.84
2019-05-25T13:20:03.207Z,27.74
2019-05-25T13:22:34.210Z,28.06
2019-05-25T13:25:04.809Z,28.04
2019-05-25T13:27:36.684Z,28.04
2019-05-25T13:30:10.268Z,28.23
2019-05-25T13:32:40.620Z,27.95
2019-05-25T13:35:13.742Z,27.44
2019-05-25T13:37:43.157Z,27.75
2019-05-25T13:40:18.416Z,28.03
2019-05-25T13:42:50.289Z,28.20
2019-05-25T13:45:23.633Z,28.33
2019-05-25T13:47:54.574Z,28.31
2019-05-25T13:50:24.112Z,28.33
2019-05-25T13:52:54.733Z,28.55
2019-05-25T13:55:25.818Z,29.00
2019-05-25T13:57:58.766Z,29.27
2019-05-25T14:00:29.882Z,29.25
2019-05-25T14:03:05.124Z,28.52
2019-05-25T14:05:35.740Z,28.60
2019-05-25T14:08:10.010Z,28.32
2019-05-25T14:10:42.086Z,28.38
2019-05-25T14:13:12.626Z,28.16
2019-05-25T14:15:43.767Z,27.78
2019-05-25T14:18:14.796Z,27.52
2019-05-25T14:20:46.327Z,27.45
2019-05-25T14:23:18.817Z,27.64
2019-05-25T14:25:49.532Z,27.63
2019-05-25T14:28:20.289Z,27.88
2019-05-25T14:30:50.971Z,28.11
2019-05-25T14:33:21.497Z,28.07
2019-05-25T14:35:50.213Z,28.09
2019-05-25T14:38:19.803Z,28.26
2019-05-25T14:40:51.287Z,28.40
2019-05-25T14:43:21.961Z,28.93
2019-05-25T14:45:53.494Z,28.75
2019-05-25T14:48:24.761Z,28.59
2019-05-25T14:50:55.364Z,27.96
2019-05-25T14:53:26.137Z,27.55
2019-05-25T14:55:56.594Z,27.37
2019-05-25T14:58:27.535Z,27.16
2019-05-25T15:01:01.014Z,27.10
2019-05-25T15:03:33.346Z,26.99
2019-05-25T15:06:05.529Z,26.79
2019-05-25T15:08:39.482Z,26.66
2019-05-25T15:11:08.787Z,26.77
2019-05-25T15:13:43.133Z,26.97
2019-05-25T15:16:16.028Z,27.38
2019-05-25T15:18:46.330Z,27.38
2019-05-25T15:21:16.838Z,27.29
2019-05-25T15:23:46.568Z,27.29
2019-05-25T15:26:17.137Z,26.92
2019-05-25T15:28:49.205Z,26.43
2019-05-25T15:31:19.921Z,26.18
2019-05-25T15:33:51.624Z,25.93
2019-05-25T15:36:23.471Z,25.72
2019-05-25T15:38:54.063Z,25.83
2019-05-25T15:41:25.935Z,25.92
2019-05-25T15:43:55.619Z,26.04
2019-05-25T15:46:25.994Z,25.85
2019-05-25T15:48:56.735Z,26.01
2019-05-25T15:51:29.234Z,25.78
2019-05-25T15:54:00.875Z,25.49
2019-05-25T15:56:32.890Z,25.32
2019-05-25T15:59:03.263Z,25.20
2019-05-25T16:01:33.679Z,25.16
2019-05-25T16:04:05.753Z,25.05
2019-05-25T16:06:35.752Z,24.82
2019-05-25T16:09:08.675Z,24.49
2019-05-25T16:11:42.924Z,24.25
2019-05-25T16:14:12.594Z,24.22
2019-05-25T16:16:42.307Z,24.15
2019-05-25T16:19:12.879Z,24.06
2019-05-25T16:21:43.595Z,24.15
2019-05-25T16:24:14.642Z,24.29
2019-05-25T16:26:46.224Z,24.49
2019-05-25T16:29:16.500Z,24.71
2019-05-25T16:31:46.995Z,24.97
2019-05-25T16:34:16.375Z,25.04
2019-05-25T16:36:47.179Z,25.09
2019-05-25T16:39:17.315Z,25.26
2019-05-25T16:41:47.990Z,25.00
2019-05-25T16:44:19.950Z,24.69
2019-05-25T16:46:52.144Z,24.39
2019-05-25T16:49:22.556Z,24.16
2019-05-25T16:51:53.267Z,23.88
2019-05-25T16:54:24.525Z,23.68
2019-05-25T16:56:58.673Z,23.57
2019-05-25T16:59:30.675Z,23.32
2019-05-25T17:02:01.787Z,23.28
2019-05-25T17:04:34.279Z,23.14
2019-05-25T17:07:03.945Z,22.98
2019-05-25T17:09:34.884Z,22.92
2019-05-25T17:12:05.614Z,22.80
2019-05-25T17:14:36.112Z,22.71
2019-05-25T17:17:05.631Z,22.79
2019-05-25T17:19:34.986Z,22.65
2019-05-25T17:22:03.804Z,22.45
2019-05-25T17:24:34.289Z,22.29
2019-05-25T17:27:04.934Z,22.30
2019-05-25T17:29:38.259Z,22.23
2019-05-25T17:32:09.058Z,22.28
2019-05-25T17:34:40.928Z,22.40
2019-05-25T17:37:11.550Z,22.47
2019-05-25T17:39:41.942Z,22.36
2019-05-25T17:42:11.426Z,22.21
2019-05-25T17:44:43.379Z,21.91
2019-05-25T17:47:15.669Z,21.62
2019-05-25T17:49:45.084Z,21.44
2019-05-25T17:52:15.438Z,21.37
2019-05-25T17:54:45.839Z,21.30
2019-05-25T17:57:16.150Z,21.21
2019-05-25T17:59:45.092Z,21.20
2019-05-25T18:02:17.395Z,21.17
2019-05-25T18:04:46.837Z,21.09
2019-05-25T18:07:17.141Z,20.94
2019-05-25T18:09:46.505Z,20.92
2019-05-25T18:12:16.902Z,20.87
2019-05-25T18:14:47.635Z,20.77
2019-05-25T18:17:18.146Z,20.75
2019-05-25T18:19:46.971Z,20.69
2019-05-25T18:22:17.706Z,20.66
2019-05-25T18:24:49.592Z,20.66
2019-05-25T18:27:19.887Z,20.63
2019-05-25T18:29:49.325Z,20.59
2019-05-25T18:32:19.838Z,20.49
2019-05-25T18:34:49.624Z,20.27
2019-05-25T18:37:21.095Z,20.27
2019-05-25T18:39:51.632Z,20.29
2019-05-25T18:42:24.590Z,20.18
2019-05-25T18:44:57.500Z,20.10
2019-05-25T18:47:27.907Z,19.93
2019-05-25T18:49:59.364Z,19.91
2019-05-25T18:52:28.653Z,19.83
2019-05-25T18:54:59.541Z,19.74
2019-05-25T18:57:31.416Z,19.65
2019-05-25T19:00:01.921Z,19.51
2019-05-25T19:02:32.235Z,19.48
2019-05-25T19:05:02.630Z,19.37
2019-05-25T19:07:33.205Z,19.29
2019-05-25T19:10:02.575Z,19.06
2019-05-25T19:12:34.727Z,18.96
2019-05-25T19:15:04.495Z,18.85
2019-05-25T19:17:33.870Z,18.85
2019-05-25T19:20:02.771Z,18.83
2019-05-25T19:22:33.061Z,18.78
2019-05-25T19:25:03.977Z,18.70
2019-05-25T19:27:36.821Z,18.62
2019-05-25T19:30:10.651Z,18.58
2019-05-25T19:32:41.160Z,18.51
2019-05-25T19:35:10.840Z,18.46
2019-05-25T19:37:42.374Z,18.42
2019-05-25T19:40:13.871Z,18.37
2019-05-25T19:42:44.657Z,18.32
2019-05-25T19:45:15.284Z,18.28
2019-05-25T19:47:44.802Z,18.24
2019-05-25T19:50:16.055Z,18.23
2019-05-25T19:52:47.252Z,18.18
2019-05-25T19:55:18.203Z,18.15
2019-05-25T19:57:49.498Z,18.11
2019-05-25T20:00:23.119Z,18.08
2019-05-25T20:02:53.662Z,18.07
2019-05-25T20:05:23.131Z,18.02
2019-05-25T20:07:52.702Z,17.97
2019-05-25T20:10:24.146Z,17.92
2019-05-25T20:12:56.127Z,17.88
2019-05-25T20:15:26.642Z,17.86
2019-05-25T20:17:57.351Z,17.86
2019-05-25T20:20:28.897Z,17.82
2019-05-25T20:22:59.297Z,17.78
2019-05-25T20:25:30.934Z,17.79
2019-05-25T20:28:01.585Z,17.74
2019-05-25T20:30:30.494Z,17.71
2019-05-25T20:33:01.709Z,17.67
2019-05-25T20:35:34.353Z,17.62
2019-05-25T20:38:04.760Z,17.59
2019-05-25T20:40:36.068Z,17.53
2019-05-25T20:43:05.470Z,17.49
2019-05-25T20:45:37.703Z,17.44
2019-05-25T20:48:10.792Z,17.44
2019-05-25T20:50:40.145Z,17.32
2019-05-25T20:53:12.415Z,17.37
2019-05-25T20:55:44.644Z,16.99
2019-05-25T20:58:15.015Z,16.88
2019-05-25T21:00:44.411Z,16.83
2019-05-25T21:03:14.766Z,16.77
2019-05-25T21:05:50.461Z,16.73
2019-05-25T21:08:15.305Z,16.69
2019-05-25T21:10:45.710Z,16.59
2019-05-25T21:13:15.144Z,16.54
2019-05-25T21:15:44.642Z,16.52
2019-05-25T21:18:14.086Z,16.48
2019-05-25T21:20:46.354Z,16.46
2019-05-25T21:23:15.759Z,16.45
2019-05-25T21:25:46.642Z,16.44
2019-05-25T21:28:17.278Z,16.40
2019-05-25T21:30:48.506Z,16.38
2019-05-25T21:33:17.863Z,16.28
2019-05-25T21:36:06.326Z,16.24
2019-05-25T21:38:19.932Z,16.21
2019-05-25T21:40:50.689Z,16.20
2019-05-25T21:43:20.941Z,16.20
2019-05-25T21:45:51.438Z,16.34
2019-05-25T21:48:22.277Z,16.39
2019-05-25T21:50:52.892Z,16.37
2019-05-25T21:53:21.733Z,16.10
2019-05-25T21:55:53.613Z,16.03
2019-05-25T21:58:23.233Z,16.03
2019-05-25T22:00:55.314Z,16.03
2019-05-25T22:03:28.366Z,15.99
2019-05-25T22:05:57.766Z,15.96
2019-05-25T22:08:26.241Z,15.90
2019-05-25T22:10:55.780Z,15.88
2019-05-25T22:13:28.662Z,15.83
2019-05-25T22:15:56.483Z,15.78
2019-05-25T22:18:26.922Z,15.71
2019-05-25T22:20:57.344Z,15.73
2019-05-25T22:23:28.821Z,15.70
2019-05-25T22:25:58.202Z,15.71
2019-05-25T22:28:43.821Z,15.70
2019-05-25T22:30:59.633Z,15.65
2019-05-25T22:33:31.702Z,15.63
2019-05-25T22:36:02.630Z,15.64
2019-05-25T22:38:33.156Z,15.64
2019-05-25T22:41:03.511Z,15.65
2019-05-25T22:43:34.019Z,15.69
2019-05-25T22:46:03.426Z,15.72
2019-05-25T22:48:32.848Z,15.83
2019-05-25T22:51:03.358Z,15.89
2019-05-25T22:53:33.770Z,15.97
2019-05-25T22:56:04.170Z,16.09
2019-05-25T22:58:33.570Z,16.14
2019-05-25T23:01:05.869Z,16.26
2019-05-25T23:03:36.338Z,16.29
2019-05-25T23:06:08.822Z,16.33
2019-05-25T23:08:39.253Z,16.35
2019-05-25T23:11:08.643Z,16.33
2019-05-25T23:13:38.163Z,16.38
2019-05-25T23:16:09.230Z,16.40
2019-05-25T23:18:39.807Z,16.38
2019-05-25T23:21:09.321Z,16.44
2019-05-25T23:23:40.092Z,16.39
2019-05-25T23:26:15.203Z,16.41
2019-05-25T23:28:45.551Z,16.48
2019-05-25T23:31:15.910Z,16.51
2019-05-25T23:33:47.924Z,16.47
2019-05-25T23:36:18.286Z,16.47
2019-05-25T23:38:49.009Z,16.46
2019-05-25T23:41:19.728Z,16.35
2019-05-25T23:43:49.345Z,16.37
2019-05-25T23:46:21.164Z,16.34
2019-05-25T23:48:51.672Z,16.32
2019-05-25T23:51:21.088Z,16.33
2019-05-25T23:53:51.538Z,16.31
2019-05-25T23:56:21.927Z,16.28
2019-05-25T23:58:51.356Z,16.32
